createdAt,value
2022-09-11T00:01:31.328Z,100399.64
2022-09-11T00:03:59.885Z,100401.45
2022-09-11T00:06:30.205Z,100395.78
2022-09-11T00:09:01.057Z,100389.25
2022-09-11T00:11:31.885Z,100396.97
2022-09-11T00:14:00.881Z,100393.44
2022-09-11T00:16:31.051Z,100396.59
2022-09-11T00:19:00.394Z,100400.50
2022-09-11T00:21:29.754Z,100400.21
2022-09-11T00:23:58.304Z,100399.59
2022-09-11T00:26:27.188Z,100401.21
2022-09-11T00:28:55.666Z,100402.89
2022-09-11T00:31:26.191Z,100398.97
2022-09-11T00:33:55.680Z,100398.03
2022-09-11T00:36:26.130Z,100391.82
2022-09-11T00:38:54.884Z,100393.05
2022-09-11T00:41:24.812Z,100391.80
2022-09-11T00:43:55.897Z,100391.86
2022-09-11T00:46:26.590Z,100391.03
2022-09-11T00:48:57.476Z,100389.51
2022-09-11T00:51:33.716Z,100388.91
2022-09-11T00:54:04.017Z,100387.90
2022-09-11T00:56:34.352Z,100385.80
2022-09-11T00:59:03.263Z,100389.08
2022-09-11T01:01:31.935Z,100383.95
2022-09-11T01:04:05.910Z,100381.44
2022-09-11T01:06:34.724Z,100383.72
2022-09-11T01:09:04.768Z,100381.36
2022-09-11T01:11:59.361Z,100378.41
2022-09-11T01:14:40.246Z,100380.42
2022-09-11T01:17:25.000Z,100378.59
2022-09-11T01:20:05.872Z,100378.42
2022-09-11T01:22:34.458Z,100371.50
2022-09-11T01:25:21.885Z,100370.45
2022-09-11T01:27:51.156Z,100368.25
2022-09-11T01:30:21.420Z,100374.66
2022-09-11T01:32:53.272Z,100378.08
2022-09-11T01:35:33.429Z,100376.17
2022-09-11T01:38:05.781Z,100378.99
2022-09-11T01:40:39.713Z,100380.48
2022-09-11T01:43:14.236Z,100383.49
2022-09-11T01:45:45.111Z,100383.72
2022-09-11T01:48:16.527Z,100389.77
2022-09-11T01:50:46.645Z,100388.25
2022-09-11T01:53:16.751Z,100391.92
2022-09-11T01:55:49.728Z,100393.20
2022-09-11T01:58:23.153Z,100391.58
2022-09-11T02:00:54.730Z,100382.73
2022-09-11T02:03:27.389Z,100384.50
2022-09-11T02:05:59.453Z,100384.40
2022-09-11T02:08:37.664Z,100384.63
2022-09-11T02:11:11.440Z,100382.19
2022-09-11T02:13:47.941Z,100377.09
2022-09-11T02:16:42.949Z,100370.77
2022-09-11T02:19:16.884Z,100367.56
2022-09-11T02:21:48.281Z,100365.02
2022-09-11T02:24:17.409Z,100369.09
2022-09-11T02:26:50.699Z,100367.45
2022-09-11T02:29:19.695Z,100366.95
2022-09-11T02:31:49.235Z,100367.40
2022-09-11T02:34:18.395Z,100361.75
2022-09-11T02:36:47.191Z,100365.89
2022-09-11T02:39:15.672Z,100370.12
2022-09-11T02:41:55.739Z,100374.14
2022-09-11T02:44:24.581Z,100376.15
2022-09-11T02:47:06.515Z,100377.13
2022-09-11T02:49:44.481Z,100377.15
2022-09-11T02:52:16.997Z,100382.95
2022-09-11T02:54:57.358Z,100378.99
2022-09-11T02:57:30.757Z,100382.23
2022-09-11T03:00:01.779Z,100377.23
2022-09-11T03:02:31.920Z,100380.27
2022-09-11T03:05:01.705Z,100387.29
2022-09-11T03:07:30.009Z,100389.20
2022-09-11T03:10:00.032Z,100389.22
2022-09-11T03:12:28.924Z,100390.73
2022-09-11T03:14:57.812Z,100389.35
2022-09-11T03:17:26.399Z,100388.24
2022-09-11T03:19:54.543Z,100385.92
2022-09-11T03:22:22.986Z,100389.92
2022-09-11T03:24:53.567Z,100393.66
2022-09-11T03:27:24.049Z,100395.12
2022-09-11T03:29:53.213Z,100398.96
2022-09-11T03:32:23.231Z,100402.17
2022-09-11T03:34:51.680Z,100401.09
2022-09-11T03:37:20.608Z,100402.54
2022-09-11T03:39:49.526Z,100402.33
2022-09-11T03:42:18.187Z,100401.61
2022-09-11T03:44:46.462Z,100403.45
2022-09-11T03:47:15.563Z,100405.05
2022-09-11T03:49:44.040Z,100405.46
2022-09-11T03:52:12.830Z,100408.92
2022-09-11T03:54:41.518Z,100407.72
2022-09-11T03:57:10.718Z,100409.88
2022-09-11T03:59:39.454Z,100411.48
2022-09-11T04:02:08.161Z,100413.52
2022-09-11T04:04:37.495Z,100419.72
2022-09-11T04:07:06.110Z,100417.64
2022-09-11T04:09:34.942Z,100417.95
2022-09-11T04:12:03.455Z,100414.75
2022-09-11T04:14:32.348Z,100418.82
2022-09-11T04:17:01.211Z,100416.48
2022-09-11T04:19:29.618Z,100418.41
2022-09-11T04:21:58.306Z,100418.98
2022-09-11T04:24:27.303Z,100422.64
2022-09-11T04:27:00.504Z,100422.38
2022-09-11T04:29:32.879Z,100425.07
2022-09-11T04:32:02.270Z,100429.55
2022-09-11T04:34:32.905Z,100427.64
2022-09-11T04:37:01.360Z,100429.15
2022-09-11T04:39:31.098Z,100427.83
2022-09-11T04:41:59.785Z,100428.09
2022-09-11T04:44:29.805Z,100430.58
2022-09-11T04:46:58.159Z,100430.71
2022-09-11T04:49:26.667Z,100434.02
2022-09-11T04:51:55.456Z,100435.55
2022-09-11T04:54:25.167Z,100436.22
2022-09-11T04:56:54.893Z,100440.23
2022-09-11T04:59:24.137Z,100443.33
2022-09-11T05:02:11.328Z,100442.92
2022-09-11T05:04:42.136Z,100442.38
2022-09-11T05:07:13.765Z,100442.73
2022-09-11T05:09:44.018Z,100442.94
2022-09-11T05:12:12.808Z,100441.17
2022-09-11T05:14:41.676Z,100441.84
2022-09-11T05:17:10.343Z,100443.23
2022-09-11T05:19:41.433Z,100447.78
2022-09-11T05:22:10.219Z,100450.64
2022-09-11T05:24:41.089Z,100446.75
2022-09-11T05:27:09.954Z,100447.68
2022-09-11T05:29:39.658Z,100448.39
2022-09-11T05:32:11.318Z,100448.96
2022-09-11T05:34:40.617Z,100447.58
2022-09-11T05:37:11.250Z,100443.84
2022-09-11T05:39:44.372Z,100445.77
2022-09-11T05:42:13.745Z,100444.58
2022-09-11T05:44:44.275Z,100447.01
2022-09-11T05:47:14.659Z,100448.44
2022-09-11T05:49:44.108Z,100451.05
2022-09-11T05:52:12.590Z,100450.85
2022-09-11T05:54:41.179Z,100451.15
2022-09-11T05:57:09.656Z,100449.06
2022-09-11T05:59:39.476Z,100449.13
2022-09-11T06:02:11.173Z,100449.34
2022-09-11T06:04:43.803Z,100452.10
2022-09-11T06:07:13.390Z,100456.16
2022-09-11T06:09:43.027Z,100453.59
2022-09-11T06:12:12.673Z,100456.66
2022-09-11T06:14:44.907Z,100456.42
2022-09-11T06:17:13.490Z,100453.67
2022-09-11T06:19:41.974Z,100451.35
2022-09-11T06:22:11.556Z,100458.98
2022-09-11T06:24:42.830Z,100459.02
2022-09-11T06:27:11.621Z,100459.91
2022-09-11T06:29:45.325Z,100465.79
2022-09-11T06:32:13.809Z,100463.77
2022-09-11T06:34:42.393Z,100466.48
2022-09-11T06:37:14.258Z,100467.20
2022-09-11T06:39:42.789Z,100472.42
2022-09-11T06:42:14.049Z,100472.63
2022-09-11T06:44:42.263Z,100475.88
2022-09-11T06:47:13.725Z,100473.84
2022-09-11T06:49:42.097Z,100478.97
2022-09-11T06:52:29.320Z,100481.98
2022-09-11T06:55:21.047Z,100488.82
2022-09-11T06:57:57.209Z,100491.79
2022-09-11T07:00:28.764Z,100487.73
2022-09-11T07:02:57.553Z,100486.09
2022-09-11T07:05:26.548Z,100484.00
2022-09-11T07:07:56.059Z,100483.41
2022-09-11T07:10:24.945Z,100482.83
2022-09-11T07:12:56.399Z,100478.95
2022-09-11T07:15:24.680Z,100480.92
2022-09-11T07:17:53.160Z,100478.81
2022-09-11T07:20:22.518Z,100475.65
2022-09-11T07:22:51.458Z,100476.21
2022-09-11T07:25:20.757Z,100479.09
2022-09-11T07:27:49.780Z,100480.17
2022-09-11T07:30:18.820Z,100474.48
2022-09-11T07:32:50.202Z,100479.48
2022-09-11T07:35:22.163Z,100476.61
2022-09-11T07:37:53.208Z,100478.20
2022-09-11T07:40:25.889Z,100482.38
2022-09-11T07:42:54.371Z,100478.81
2022-09-11T07:45:23.440Z,100481.16
2022-09-11T07:47:52.565Z,100480.85
2022-09-11T07:50:24.452Z,100477.55
2022-09-11T07:52:53.014Z,100481.86
2022-09-11T07:55:22.034Z,100483.33
2022-09-11T07:57:52.434Z,100477.61
2022-09-11T08:00:21.715Z,100476.87
2022-09-11T08:02:50.374Z,100482.93
2022-09-11T08:05:28.022Z,100481.39
2022-09-11T08:07:57.324Z,100473.56
2022-09-11T08:10:28.045Z,100469.52
2022-09-11T08:12:59.940Z,100466.23
2022-09-11T08:15:33.840Z,100466.37
2022-09-11T08:18:03.133Z,100462.76
2022-09-11T08:20:32.647Z,100465.31
2022-09-11T08:23:01.644Z,100460.30
2022-09-11T08:25:30.222Z,100461.85
2022-09-11T08:27:59.933Z,100457.84
2022-09-11T08:30:28.538Z,100454.42
2022-09-11T08:32:57.102Z,100452.17
2022-09-11T08:35:26.505Z,100448.54
2022-09-11T08:37:55.809Z,100453.57
2022-09-11T08:40:24.367Z,100449.88
2022-09-11T08:42:53.489Z,100450.99
2022-09-11T08:45:24.077Z,100447.16
2022-09-11T08:47:54.325Z,100443.98
2022-09-11T08:50:23.648Z,100442.85
2022-09-11T08:52:55.100Z,100441.00
2022-09-11T08:55:39.735Z,100443.05
2022-09-11T08:58:21.252Z,100438.70
2022-09-11T09:01:02.271Z,100438.23
2022-09-11T09:03:51.368Z,100432.08
2022-09-11T09:06:56.232Z,100428.19
2022-09-11T09:09:37.006Z,100425.14
2022-09-11T09:12:11.507Z,100418.12
2022-09-11T09:14:58.407Z,100413.41
2022-09-11T09:17:36.207Z,100410.00
2022-09-11T09:20:04.675Z,100404.70
2022-09-11T09:22:45.904Z,100406.48
2022-09-11T09:25:17.155Z,100405.73
2022-09-11T09:27:47.558Z,100407.74
2022-09-11T09:30:17.628Z,100404.63
2022-09-11T09:32:50.998Z,100405.71
2022-09-11T09:35:22.037Z,100401.08
2022-09-11T09:37:50.728Z,100406.70
2022-09-11T09:40:19.560Z,100404.34
2022-09-11T09:42:56.035Z,100402.77
2022-09-11T09:45:52.538Z,100396.48
2022-09-11T09:48:21.319Z,100394.41
2022-09-11T09:50:49.905Z,100392.01
2022-09-11T09:53:24.534Z,100391.40
2022-09-11T09:55:54.571Z,100388.88
2022-09-11T09:58:26.514Z,100391.50
2022-09-11T10:00:54.894Z,100385.91
2022-09-11T10:03:24.503Z,100387.42
2022-09-11T10:05:54.897Z,100382.16
2022-09-11T10:08:29.661Z,100378.60
2022-09-11T10:11:04.156Z,100370.14
2022-09-11T10:13:38.060Z,100370.29
2022-09-11T10:16:19.634Z,100368.20
2022-09-11T10:18:48.169Z,100369.20
2022-09-11T10:21:29.909Z,100372.11
2022-09-11T10:24:00.133Z,100370.39
2022-09-11T10:26:31.843Z,100368.95
2022-09-11T10:29:13.845Z,100369.55
2022-09-11T10:31:49.601Z,100368.48
2022-09-11T10:34:22.585Z,100366.12
2022-09-11T10:36:54.037Z,100367.95
2022-09-11T10:39:23.834Z,100363.20
2022-09-11T10:41:54.616Z,100359.68
2022-09-11T10:44:24.692Z,100357.38
2022-09-11T10:47:04.562Z,100357.00
2022-09-11T10:49:34.244Z,100357.98
2022-09-11T10:52:08.900Z,100351.42
2022-09-11T10:54:40.832Z,100350.79
2022-09-11T10:57:13.549Z,100347.67
2022-09-11T10:59:41.930Z,100345.89
2022-09-11T11:02:18.108Z,100343.36
2022-09-11T11:04:47.439Z,100344.23
2022-09-11T11:07:34.641Z,100343.71
2022-09-11T11:10:08.027Z,100340.73
2022-09-11T11:12:46.833Z,100339.09
2022-09-11T11:15:21.768Z,100337.02
2022-09-11T11:17:56.190Z,100334.59
2022-09-11T11:20:48.020Z,100330.09
2022-09-11T11:23:31.762Z,100328.95
2022-09-11T11:26:26.872Z,100320.23
2022-09-11T11:29:08.459Z,100325.48
2022-09-11T11:31:39.380Z,100319.80
2022-09-11T11:34:12.902Z,100317.23
2022-09-11T11:36:44.257Z,100314.20
2022-09-11T11:39:19.151Z,100309.54
2022-09-11T11:42:00.674Z,100303.20
2022-09-11T11:44:34.153Z,100303.90
2022-09-11T11:47:05.319Z,100306.28
2022-09-11T11:49:42.889Z,100304.48
2022-09-11T11:52:23.379Z,100296.42
2022-09-11T11:54:58.460Z,100294.98
2022-09-11T11:57:31.536Z,100289.38
2022-09-11T12:00:20.163Z,100290.64
2022-09-11T12:03:11.770Z,100287.59
2022-09-11T12:05:40.788Z,100288.84
2022-09-11T12:08:16.331Z,100286.95
2022-09-11T12:10:46.452Z,100285.48
2022-09-11T12:13:16.929Z,100281.34
2022-09-11T12:16:06.456Z,100280.91
2022-09-11T12:18:38.767Z,100274.89
2022-09-11T12:21:25.257Z,100272.56
2022-09-11T12:23:53.924Z,100267.30
2022-09-11T12:26:23.737Z,100266.57
2022-09-11T12:29:20.789Z,100258.31
2022-09-11T12:31:49.377Z,100254.12
2022-09-11T12:34:17.756Z,100255.64
2022-09-11T12:37:00.918Z,100251.66
2022-09-11T12:39:34.935Z,100246.06
2022-09-11T12:42:23.459Z,100247.31
2022-09-11T12:44:52.016Z,100243.88
2022-09-11T12:47:27.788Z,100245.65
2022-09-11T12:50:05.286Z,100238.80
2022-09-11T12:52:47.979Z,100229.45
2022-09-11T12:55:25.697Z,100233.28
2022-09-11T12:57:55.270Z,100235.56
2022-09-11T13:00:28.807Z,100232.80
2022-09-11T13:02:58.722Z,100230.94
2022-09-11T13:05:27.514Z,100232.01
2022-09-11T13:08:00.099Z,100228.25
2022-09-11T13:10:33.622Z,100224.92
2022-09-11T13:13:05.965Z,100232.15
2022-09-11T13:15:38.637Z,100231.27
2022-09-11T13:18:36.318Z,100233.85
2022-09-11T13:21:11.251Z,100232.66
2022-09-11T13:23:40.687Z,100228.61
2022-09-11T13:26:13.540Z,100229.21
2022-09-11T13:28:46.531Z,100229.75
2022-09-11T13:31:35.821Z,100224.55
2022-09-11T13:34:13.394Z,100222.39
2022-09-11T13:36:41.982Z,100215.25
2022-09-11T13:39:10.874Z,100217.50
2022-09-11T13:41:41.302Z,100215.46
2022-09-11T13:44:32.313Z,100211.98
2022-09-11T13:47:01.001Z,100212.68
2022-09-11T13:49:39.618Z,100207.23
2022-09-11T13:52:11.072Z,100207.77
2022-09-11T13:54:59.114Z,100203.86
2022-09-11T13:57:32.307Z,100204.73
2022-09-11T14:00:01.405Z,100204.13
2022-09-11T14:02:35.949Z,100203.08
2022-09-11T14:05:21.238Z,100204.20
2022-09-11T14:07:56.679Z,100207.48
2022-09-11T14:10:25.120Z,100200.51
2022-09-11T14:12:56.894Z,100198.02
2022-09-11T14:15:33.467Z,100191.21
2022-09-11T14:18:03.281Z,100183.60
2022-09-11T14:20:32.175Z,100184.91
2022-09-11T14:23:05.061Z,100182.37
2022-09-11T14:25:34.436Z,100176.27
2022-09-11T14:28:02.949Z,100168.55
2022-09-11T14:30:37.380Z,100169.39
2022-09-11T14:33:07.420Z,100170.23
2022-09-11T14:35:36.589Z,100169.02
2022-09-11T14:38:04.867Z,100165.14
2022-09-11T14:40:33.555Z,100166.39
2022-09-11T14:43:03.629Z,100161.30
2022-09-11T14:45:32.157Z,100166.45
2022-09-11T14:48:00.843Z,100163.66
2022-09-11T14:50:31.380Z,100161.13
2022-09-11T14:53:00.092Z,100157.16
2022-09-11T14:55:28.766Z,100154.59
2022-09-11T14:57:57.366Z,100153.14
2022-09-11T15:00:25.818Z,100153.52
2022-09-11T15:02:54.944Z,100155.80
2022-09-11T15:05:24.867Z,100151.21
2022-09-11T15:07:53.520Z,100150.10
2022-09-11T15:10:22.207Z,100152.82
2022-09-11T15:12:50.794Z,100149.20
2022-09-11T15:15:20.813Z,100149.11
2022-09-11T15:17:49.397Z,100146.91
2022-09-11T15:20:19.415Z,100142.73
2022-09-11T15:22:49.024Z,100146.95
2022-09-11T15:25:17.509Z,100149.10
2022-09-11T15:27:45.644Z,100152.52
2022-09-11T15:30:14.035Z,100149.73
2022-09-11T15:32:42.648Z,100145.22
2022-09-11T15:35:12.789Z,100149.86
2022-09-11T15:37:42.586Z,100145.09
2022-09-11T15:40:11.490Z,100143.06
2022-09-11T15:42:39.963Z,100151.65
2022-09-11T15:45:09.036Z,100148.75
2022-09-11T15:47:37.660Z,100149.34
2022-09-11T15:50:06.566Z,100150.11
2022-09-11T15:52:36.945Z,100154.62
2022-09-11T15:55:05.957Z,100167.79
2022-09-11T15:57:34.874Z,100175.81
2022-09-11T16:00:04.151Z,100180.53
2022-09-11T16:02:41.052Z,100180.55
2022-09-11T16:05:09.819Z,100176.60
2022-09-11T16:07:38.202Z,100174.58
2022-09-11T16:10:07.095Z,100177.70
2022-09-11T16:12:35.679Z,100185.14
2022-09-11T16:15:04.696Z,100191.95
2022-09-11T16:17:33.769Z,100189.80
2022-09-11T16:20:02.430Z,100190.38
2022-09-11T16:22:32.169Z,100195.33
2022-09-11T16:25:00.855Z,100193.02
2022-09-11T16:27:29.795Z,100196.33
2022-09-11T16:32:47.380Z,100204.91
2022-09-11T16:35:15.711Z,100202.73
2022-09-11T16:37:44.467Z,100203.04
2022-09-11T16:40:13.186Z,100206.69
2022-09-11T16:42:41.535Z,100208.53
2022-09-11T16:45:10.121Z,100204.48
2022-09-11T16:47:38.603Z,100209.73
2022-09-11T16:50:08.561Z,100217.35
2022-09-11T16:52:37.718Z,100213.70
2022-09-11T16:55:09.915Z,100214.98
2022-09-11T16:57:38.817Z,100214.44
2022-09-11T17:00:09.901Z,100223.73
2022-09-11T17:02:40.527Z,100230.38
2022-09-11T17:05:09.556Z,100228.60
2022-09-11T17:07:37.933Z,100229.63
2022-09-11T17:10:06.518Z,100238.62
2022-09-11T17:12:34.899Z,100239.73
2022-09-11T17:15:03.501Z,100245.91
2022-09-11T17:17:32.068Z,100247.19
2022-09-11T17:20:00.468Z,100250.45
2022-09-11T17:22:30.056Z,100256.74
2022-09-11T17:24:58.639Z,100261.58
2022-09-11T17:27:27.738Z,100262.50
2022-09-11T17:29:56.220Z,100264.39
2022-09-11T17:32:28.640Z,100266.34
2022-09-11T17:34:58.818Z,100272.85
2022-09-11T17:37:29.275Z,100270.48
2022-09-11T17:39:58.273Z,100269.70
2022-09-11T17:42:27.644Z,100271.24
2022-09-11T17:44:56.945Z,100275.13
2022-09-11T17:47:26.169Z,100272.13
2022-09-11T17:49:54.585Z,100265.60
2022-09-11T17:52:22.907Z,100267.52
2022-09-11T17:54:51.066Z,100270.69
2022-09-11T17:57:19.565Z,100279.52
2022-09-11T17:59:50.691Z,100287.46
2022-09-11T18:02:19.945Z,100285.68
2022-09-11T18:04:48.398Z,100287.58
2022-09-11T18:07:17.794Z,100282.40
2022-09-11T18:09:47.228Z,100283.69
2022-09-11T18:12:15.784Z,100280.16
2022-09-11T18:14:44.471Z,100283.85
2022-09-11T18:17:12.850Z,100286.33
2022-09-11T18:19:41.744Z,100291.55
2022-09-11T18:22:10.528Z,100291.38
2022-09-11T18:24:39.800Z,100293.69
2022-09-11T18:27:09.974Z,100295.77
2022-09-11T18:29:40.119Z,100297.22
2022-09-11T18:32:10.166Z,100298.98
2022-09-11T18:34:39.142Z,100299.66
2022-09-11T18:37:08.083Z,100300.77
2022-09-11T18:39:38.684Z,100298.83
2022-09-11T18:42:07.810Z,100296.74
2022-09-11T18:44:36.364Z,100294.00
2022-09-11T18:47:04.981Z,100289.88
2022-09-11T18:49:33.976Z,100292.64
2022-09-11T18:52:03.220Z,100292.00
2022-09-11T18:54:34.012Z,100295.02
2022-09-11T18:57:03.752Z,100294.65
2022-09-11T18:59:32.208Z,100295.65
2022-09-11T19:02:01.112Z,100301.32
2022-09-11T19:04:29.574Z,100300.63
2022-09-11T19:07:00.198Z,100294.19
2022-09-11T19:09:29.822Z,100294.37
2022-09-11T19:12:00.213Z,100295.42
2022-09-11T19:14:29.146Z,100300.47
2022-09-11T19:17:00.148Z,100304.59
2022-09-11T19:19:28.771Z,100314.49
2022-09-11T19:21:57.457Z,100310.41
2022-09-11T19:24:28.806Z,100314.17
2022-09-11T19:26:57.392Z,100312.50
2022-09-11T19:29:25.972Z,100310.06
2022-09-11T19:31:55.074Z,100308.82
2022-09-11T19:34:24.783Z,100313.17
2022-09-11T19:36:53.883Z,100315.29
2022-09-11T19:39:22.874Z,100315.17
2022-09-11T19:41:52.177Z,100309.58
2022-09-11T19:44:21.071Z,100307.95
2022-09-11T19:46:53.800Z,100312.41
2022-09-11T19:49:22.641Z,100305.09
2022-09-11T19:51:52.276Z,100304.56
2022-09-11T19:54:20.732Z,100306.02
2022-09-11T19:56:50.358Z,100305.20
2022-09-11T19:59:19.028Z,100303.02
2022-09-11T20:01:47.544Z,100299.48
2022-09-11T20:04:17.962Z,100294.59
2022-09-11T20:09:30.501Z,100292.64
2022-09-11T20:12:01.559Z,100294.73
2022-09-11T20:14:30.811Z,100300.31
2022-09-11T20:17:01.189Z,100306.77
2022-09-11T20:19:30.113Z,100311.23
2022-09-11T20:22:00.448Z,100316.89
2022-09-11T20:24:29.145Z,100317.62
2022-09-11T20:26:58.036Z,100314.88
2022-09-11T20:29:26.418Z,100309.98
2022-09-11T20:31:56.167Z,100307.40
2022-09-11T20:34:28.256Z,100302.68
2022-09-11T20:36:57.207Z,100299.11
2022-09-11T20:39:25.876Z,100301.13
2022-09-11T20:41:54.257Z,100299.77
2022-09-11T20:44:24.612Z,100305.36
2022-09-11T20:46:53.287Z,100315.45
2022-09-11T20:49:21.750Z,100317.17
2022-09-11T20:51:50.233Z,100317.45
2022-09-11T20:54:18.818Z,100314.46
2022-09-11T20:56:47.300Z,100315.71
2022-09-11T20:59:16.377Z,100315.92
2022-09-11T21:01:44.813Z,100315.66
2022-09-11T21:04:13.363Z,100309.36
2022-09-11T21:06:41.639Z,100306.52
2022-09-11T21:09:11.453Z,100315.11
2022-09-11T21:11:40.659Z,100323.71
2022-09-11T21:14:10.363Z,100327.63
2022-09-11T21:16:38.975Z,100331.06
2022-09-11T21:19:08.350Z,100331.39
2022-09-11T21:21:43.132Z,100333.90
2022-09-11T21:24:12.484Z,100336.27
2022-09-11T21:26:41.069Z,100335.98
2022-09-11T21:29:09.540Z,100332.89
2022-09-11T21:31:41.585Z,100331.61
2022-09-11T21:34:10.205Z,100332.49
2022-09-11T21:36:38.582Z,100326.78
2022-09-11T21:39:07.371Z,100317.14
2022-09-11T21:41:35.854Z,100310.89
2022-09-11T21:44:04.239Z,100305.70
2022-09-11T21:46:34.269Z,100296.50
2022-09-11T21:49:02.837Z,100286.95
2022-09-11T21:51:31.114Z,100285.64
2022-09-11T21:54:02.003Z,100284.24
2022-09-11T21:56:31.691Z,100284.55
2022-09-11T21:59:00.481Z,100286.30
2022-09-11T22:01:29.417Z,100291.23
2022-09-11T22:03:58.544Z,100297.43
2022-09-11T22:06:27.335Z,100294.17
2022-09-11T22:08:56.534Z,100296.45
2022-09-11T22:11:26.348Z,100297.16
2022-09-11T22:13:55.146Z,100297.55
2022-09-11T22:16:23.792Z,100300.58
2022-09-11T22:18:53.130Z,100301.33
2022-09-11T22:21:21.711Z,100307.23
2022-09-11T22:23:50.090Z,100305.10
2022-09-11T22:26:20.314Z,100305.65
2022-09-11T22:28:48.898Z,100303.11
2022-09-11T22:31:19.283Z,100303.67
2022-09-11T22:33:47.809Z,100304.30
2022-09-11T22:36:18.033Z,100305.75
2022-09-11T22:38:46.923Z,100306.05
2022-09-11T22:41:15.782Z,100304.41
2022-09-11T22:43:44.506Z,100307.21
2022-09-11T22:46:13.028Z,100307.45
2022-09-11T22:48:41.544Z,100306.39
2022-09-11T22:51:10.255Z,100306.93
2022-09-11T22:53:40.041Z,100305.40
2022-09-11T22:56:09.780Z,100299.64
2022-09-11T22:58:38.777Z,100292.92
2022-09-11T23:01:08.473Z,100289.77
2022-09-11T23:03:37.173Z,100289.16
2022-09-11T23:06:24.547Z,100292.99
2022-09-11T23:08:52.979Z,100294.14
2022-09-11T23:11:22.281Z,100297.08
2022-09-11T23:13:50.978Z,100299.36
2022-09-11T23:16:20.648Z,100298.84
2022-09-11T23:18:52.745Z,100299.77
2022-09-11T23:21:20.921Z,100301.42
2022-09-11T23:23:53.838Z,100298.57
2022-09-11T23:26:23.825Z,100299.02
2022-09-11T23:28:52.375Z,100298.24
2022-09-11T23:31:24.917Z,100300.02
2022-09-11T23:33:55.085Z,100297.81
2022-09-11T23:36:23.793Z,100299.10
2022-09-11T23:38:52.481Z,100294.69
2022-09-11T23:41:21.555Z,100295.89
2022-09-11T23:43:50.163Z,100289.42
2022-09-11T23:46:18.306Z,100286.89
2022-09-11T23:48:47.716Z,100290.40
2022-09-11T23:51:16.428Z,100289.27
2022-09-11T23:53:49.593Z,100289.64
2022-09-11T23:56:18.412Z,100291.65
2022-09-11T23:58:46.878Z,100287.00
